Terminal Aerodrome Forecast
Issued by NWS

Current Version | Previous Version | Text Only | Print | Product List | Glossary Off
Versions: 1 2 3 4 5 6 7 8 9 10 11 12 13 14 15 16 17 18 19 20

000
FTUS41 KILN 250738 AAA
TAFLUK
TAF AMD
KLUK 250738Z 2508/2606 22005KT P6SM -RA OVC012
     FM251200 28007KT P6SM VCSH OVC012
     FM251800 30010KT P6SM VCSH OVC025
     FM260300 28008KT P6SM SCT025=

USA.gov is the U.S. government's official web portal to all federal, state and local government web resources and services.